createdAt,value
2022-10-19T00:02:14.708Z,99735.63
2022-10-19T00:04:41.096Z,99731.19
2022-10-19T00:10:40.321Z,99726.81
2022-10-19T00:13:06.794Z,99724.97
2022-10-19T00:19:09.120Z,99718.56
2022-10-19T00:21:35.995Z,99730.97
2022-10-19T00:24:14.956Z,99722.41
2022-10-19T00:26:42.225Z,99725.91
2022-10-19T00:29:25.247Z,99727.28
2022-10-19T00:31:52.116Z,99731.53
2022-10-19T00:34:35.802Z,99723.56
2022-10-19T00:37:02.200Z,99737.31
2022-10-19T00:45:16.786Z,99748.06
2022-10-19T00:47:44.584Z,99757.53
2022-10-19T00:50:14.591Z,99756.41
2022-10-19T00:52:41.602Z,99746.88
2022-10-19T00:55:08.955Z,99752.50
2022-10-19T00:57:35.857Z,99761.44
2022-10-19T01:00:06.066Z,99753.31
2022-10-19T01:02:32.688Z,99746.78
2022-10-19T01:04:59.606Z,99739.13
2022-10-19T01:07:26.818Z,99742.19
2022-10-19T01:09:54.484Z,99742.56
2022-10-19T01:12:55.741Z,99742.19
2022-10-19T01:15:31.148Z,99733.50
2022-10-19T01:18:05.043Z,99742.19
2022-10-19T01:20:31.384Z,99744.16
2022-10-19T01:23:19.153Z,99745.16
2022-10-19T01:26:07.684Z,99739.56
2022-10-19T01:28:51.335Z,99740.38
2022-10-19T01:31:48.822Z,99743.72
2022-10-19T01:34:48.112Z,99744.88
2022-10-19T01:37:37.874Z,99739.19
2022-10-19T01:40:19.975Z,99741.81
2022-10-19T01:42:58.567Z,99735.59
2022-10-19T01:45:35.104Z,99728.31
2022-10-19T01:48:15.502Z,99722.22
2022-10-19T01:51:01.614Z,99720.84
2022-10-19T01:53:32.163Z,99715.59
2022-10-19T01:56:02.787Z,99714.50
2022-10-19T01:58:33.635Z,99715.97
2022-10-19T02:01:04.734Z,99711.34
2022-10-19T02:03:32.776Z,99711.66
2022-10-19T02:06:04.937Z,99712.19
2022-10-19T02:08:45.938Z,99704.22
2022-10-19T02:11:12.485Z,99703.59
2022-10-19T02:13:41.247Z,99706.03
2022-10-19T02:16:16.448Z,99701.09
2022-10-19T02:18:47.258Z,99689.66
2022-10-19T02:21:13.874Z,99700.91
2022-10-19T02:23:40.494Z,99692.28
2022-10-19T02:26:07.898Z,99686.91
2022-10-19T02:28:35.167Z,99685.44
2022-10-19T02:31:01.917Z,99691.22
2022-10-19T02:33:29.500Z,99685.44
2022-10-19T02:35:58.025Z,99682.44
2022-10-19T02:38:25.499Z,99685.19
2022-10-19T02:41:00.217Z,99680.44
2022-10-19T02:43:28.954Z,99682.63
2022-10-19T02:46:08.157Z,99682.44
2022-10-19T02:48:42.018Z,99676.09
2022-10-19T02:51:29.669Z,99678.75
2022-10-19T02:53:57.385Z,99681.63
2022-10-19T02:56:25.524Z,99686.31
2022-10-19T02:58:52.199Z,99677.66
2022-10-19T03:01:18.735Z,99684.00
2022-10-19T03:03:45.342Z,99678.19
2022-10-19T03:06:12.026Z,99680.53
2022-10-19T03:08:38.697Z,99679.78
2022-10-19T03:11:05.384Z,99674.97
2022-10-19T03:13:31.894Z,99676.88
2022-10-19T03:16:05.212Z,99676.94
2022-10-19T03:18:31.779Z,99682.09
2022-10-19T03:21:10.365Z,99679.41
2022-10-19T03:23:37.770Z,99680.75
2022-10-19T03:26:07.578Z,99682.69
2022-10-19T03:28:36.634Z,99671.81
2022-10-19T03:31:03.215Z,99677.72
2022-10-19T03:33:29.687Z,99676.78
2022-10-19T03:36:25.864Z,99678.69
2022-10-19T03:39:03.878Z,99675.03
2022-10-19T03:41:32.878Z,99678.47
2022-10-19T03:46:26.773Z,99674.59
2022-10-19T03:48:53.981Z,99674.75
2022-10-19T03:51:26.001Z,99674.66
2022-10-19T03:53:54.397Z,99676.91
2022-10-19T03:56:22.922Z,99677.81
2022-10-19T03:58:50.535Z,99680.47
2022-10-19T04:01:20.519Z,99683.06
2022-10-19T04:03:47.021Z,99679.09
2022-10-19T04:06:18.312Z,99686.34
2022-10-19T04:08:49.150Z,99682.19
2022-10-19T04:11:18.363Z,99681.31
2022-10-19T04:13:44.831Z,99677.53
2022-10-19T04:16:14.013Z,99677.94
2022-10-19T04:18:40.714Z,99674.31
2022-10-19T04:21:07.826Z,99672.34
2022-10-19T04:23:36.122Z,99667.38
2022-10-19T04:26:06.229Z,99680.47
2022-10-19T04:28:33.454Z,99678.25
2022-10-19T04:31:05.554Z,99668.84
2022-10-19T04:33:33.441Z,99678.34
2022-10-19T04:36:05.556Z,99674.91
2022-10-19T04:38:34.922Z,99672.91
2022-10-19T04:41:10.400Z,99673.88
2022-10-19T04:43:37.446Z,99668.03
2022-10-19T04:46:24.445Z,99668.44
2022-10-19T04:48:51.277Z,99669.63
2022-10-19T04:51:18.497Z,99673.47
2022-10-19T04:53:45.153Z,99669.88
2022-10-19T04:56:15.031Z,99679.34
2022-10-19T04:58:41.944Z,99670.03
2022-10-19T05:01:11.394Z,99670.78
2022-10-19T05:03:38.158Z,99676.06
2022-10-19T05:06:05.504Z,99673.63
2022-10-19T05:08:32.240Z,99666.75
2022-10-19T05:11:07.524Z,99673.63
2022-10-19T05:13:35.283Z,99667.41
2022-10-19T05:16:04.070Z,99665.38
2022-10-19T05:18:31.029Z,99665.59
2022-10-19T05:21:09.653Z,99673.25
2022-10-19T05:23:36.464Z,99664.59
2022-10-19T05:26:17.617Z,99659.00
2022-10-19T05:28:49.080Z,99671.13
2022-10-19T05:31:18.983Z,99670.38
2022-10-19T05:33:46.378Z,99671.13
2022-10-19T05:36:18.547Z,99666.94
2022-10-19T05:38:47.704Z,99670.38
2022-10-19T05:41:15.504Z,99669.16
2022-10-19T05:43:42.695Z,99673.56
2022-10-19T05:46:11.847Z,99669.94
2022-10-19T05:48:39.494Z,99676.03
2022-10-19T05:51:08.623Z,99673.00
2022-10-19T05:53:35.801Z,99668.81
2022-10-19T05:56:05.828Z,99675.88
2022-10-19T05:58:32.806Z,99674.06
2022-10-19T06:01:00.701Z,99677.88
2022-10-19T06:03:28.491Z,99683.72
2022-10-19T06:05:55.908Z,99680.91
2022-10-19T06:08:26.332Z,99672.69
2022-10-19T06:10:52.946Z,99680.34
2022-10-19T06:13:20.237Z,99682.91
2022-10-19T06:15:50.672Z,99682.09
2022-10-19T06:18:17.587Z,99687.53
2022-10-19T06:20:44.372Z,99691.56
2022-10-19T06:23:11.596Z,99695.00
2022-10-19T06:25:38.226Z,99700.97
2022-10-19T06:28:05.994Z,99693.06
2022-10-19T06:30:32.762Z,99698.13
2022-10-19T06:32:59.766Z,99701.88
2022-10-19T06:35:26.420Z,99702.91
2022-10-19T06:37:53.663Z,99704.28
2022-10-19T06:40:20.275Z,99702.44
2022-10-19T06:42:46.988Z,99702.34
2022-10-19T06:45:13.482Z,99702.50
2022-10-19T06:47:39.968Z,99707.78
2022-10-19T06:50:07.576Z,99708.22
2022-10-19T06:52:35.584Z,99704.25
2022-10-19T06:55:02.753Z,99704.59
2022-10-19T06:57:29.842Z,99706.16
2022-10-19T06:59:56.441Z,99700.09
2022-10-19T07:02:23.320Z,99696.69
2022-10-19T07:04:50.578Z,99708.66
2022-10-19T07:07:17.600Z,99710.25
2022-10-19T07:09:44.245Z,99715.13
2022-10-19T07:12:11.136Z,99714.94
2022-10-19T07:14:39.893Z,99718.69
2022-10-19T07:17:09.669Z,99728.94
2022-10-19T07:19:36.759Z,99726.13
2022-10-19T07:22:03.850Z,99728.75
2022-10-19T07:24:30.720Z,99735.19
2022-10-19T07:26:57.469Z,99725.75
2022-10-19T07:29:27.094Z,99732.97
2022-10-19T07:31:54.189Z,99732.16
2022-10-19T07:34:28.926Z,99729.53
2022-10-19T07:36:56.328Z,99728.91
2022-10-19T07:39:23.436Z,99728.16
2022-10-19T07:41:51.253Z,99732.53
2022-10-19T07:44:18.554Z,99729.94
2022-10-19T07:46:45.906Z,99724.72
2022-10-19T07:49:19.246Z,99732.34
2022-10-19T07:51:47.107Z,99729.13
2022-10-19T07:54:14.017Z,99740.59
2022-10-19T07:56:41.172Z,99737.53
2022-10-19T07:59:08.432Z,99735.47
2022-10-19T08:01:41.357Z,99736.50
2022-10-19T08:06:55.677Z,99752.81
2022-10-19T08:09:50.861Z,99741.53
2022-10-19T08:12:14.897Z,99751.59
2022-10-19T08:14:51.858Z,99746.97
2022-10-19T08:17:21.455Z,99759.16
2022-10-19T08:19:51.767Z,99754.34
2022-10-19T08:22:18.376Z,99754.53
2022-10-19T08:24:50.083Z,99750.88
2022-10-19T08:27:17.186Z,99749.50
2022-10-19T08:29:44.100Z,99747.50
2022-10-19T08:32:16.761Z,99743.44
2022-10-19T08:34:46.840Z,99744.81
2022-10-19T08:37:26.321Z,99739.13
2022-10-19T08:40:17.711Z,99732.09
2022-10-19T08:42:53.759Z,99731.28
2022-10-19T08:48:26.032Z,99729.38
2022-10-19T08:50:54.446Z,99724.50
2022-10-19T08:53:32.412Z,99727.03
2022-10-19T08:56:49.475Z,99730.88
2022-10-19T08:59:38.767Z,99735.13
2022-10-19T09:02:20.372Z,99730.56
2022-10-19T09:05:16.273Z,99740.66
2022-10-19T09:07:45.821Z,99743.41
2022-10-19T09:10:15.771Z,99741.41
2022-10-19T09:12:49.388Z,99736.72
2022-10-19T09:15:25.511Z,99740.56
2022-10-19T09:17:52.147Z,99743.41
2022-10-19T09:20:23.366Z,99743.69
2022-10-19T09:23:02.219Z,99742.06
2022-10-19T09:25:31.171Z,99749.66
2022-10-19T09:28:13.836Z,99745.56
2022-10-19T09:30:43.493Z,99738.03
2022-10-19T09:33:19.272Z,99738.94
2022-10-19T09:35:47.571Z,99739.41
2022-10-19T09:38:17.088Z,99736.59
2022-10-19T09:40:44.164Z,99735.19
2022-10-19T09:43:21.703Z,99741.09
2022-10-19T09:46:29.403Z,99739.34
2022-10-19T09:48:59.099Z,99739.28
2022-10-19T09:51:25.873Z,99750.59
2022-10-19T09:53:57.096Z,99739.88
2022-10-19T09:56:30.066Z,99739.00
2022-10-19T09:58:59.956Z,99734.09
2022-10-19T10:01:43.493Z,99734.69
2022-10-19T10:04:18.954Z,99727.03
2022-10-19T10:06:48.725Z,99723.19
2022-10-19T10:09:22.862Z,99721.78
2022-10-19T10:11:51.771Z,99722.38
2022-10-19T10:14:38.714Z,99720.28
2022-10-19T10:17:13.811Z,99720.75
2022-10-19T10:19:51.854Z,99717.47
2022-10-19T10:22:27.780Z,99706.38
2022-10-19T10:24:59.393Z,99706.41
2022-10-19T10:27:32.963Z,99707.31
2022-10-19T10:30:05.151Z,99707.09
2022-10-19T10:32:32.736Z,99702.16
2022-10-19T10:35:17.279Z,99692.56
2022-10-19T10:37:46.262Z,99695.19
2022-10-19T10:40:32.094Z,99688.19
2022-10-19T10:43:05.430Z,99685.22
2022-10-19T10:45:37.161Z,99679.41
2022-10-19T10:48:30.538Z,99681.66
2022-10-19T10:50:59.915Z,99685.47
2022-10-19T10:53:35.685Z,99671.28
2022-10-19T10:56:04.591Z,99675.22
2022-10-19T10:58:39.633Z,99666.53
2022-10-19T11:01:16.144Z,99673.84
2022-10-19T11:03:50.937Z,99672.56
2022-10-19T11:06:20.125Z,99668.88
2022-10-19T11:09:11.689Z,99672.38
2022-10-19T11:11:43.366Z,99661.66
2022-10-19T11:14:33.593Z,99661.34
2022-10-19T11:17:06.623Z,99645.50
2022-10-19T11:19:44.981Z,99640.03
2022-10-19T11:22:34.870Z,99640.41
2022-10-19T11:25:19.910Z,99641.91
2022-10-19T11:27:52.853Z,99635.03
2022-10-19T11:30:25.635Z,99636.38
2022-10-19T11:33:06.310Z,99634.22
2022-10-19T11:35:53.291Z,99641.03
2022-10-19T11:38:31.207Z,99637.84
2022-10-19T11:41:23.108Z,99629.78
2022-10-19T11:44:26.966Z,99624.09
2022-10-19T11:47:19.732Z,99621.19
2022-10-19T11:52:49.639Z,99617.16
2022-10-19T11:55:16.199Z,99619.91
2022-10-19T11:57:56.621Z,99621.75
2022-10-19T12:00:39.814Z,99607.75
2022-10-19T12:03:18.967Z,99607.56
2022-10-19T12:06:09.388Z,99602.47
2022-10-19T12:09:00.723Z,99598.63
2022-10-19T12:11:51.232Z,99598.41
2022-10-19T12:14:23.533Z,99597.75
2022-10-19T12:17:00.833Z,99583.38
2022-10-19T12:19:38.601Z,99582.16
2022-10-19T12:22:13.542Z,99582.34
2022-10-19T12:24:40.218Z,99574.31
2022-10-19T12:27:10.426Z,99576.03
2022-10-19T12:29:42.195Z,99563.63
2022-10-19T12:32:14.190Z,99566.69
2022-10-19T12:37:59.936Z,99564.63
2022-10-19T12:40:39.362Z,99559.50
2022-10-19T12:43:28.011Z,99550.56
2022-10-19T12:46:08.040Z,99546.69
2022-10-19T12:48:36.401Z,99551.66
2022-10-19T12:51:05.796Z,99541.75
2022-10-19T12:53:36.436Z,99530.50
2022-10-19T12:56:05.092Z,99528.78
2022-10-19T12:58:41.559Z,99529.09
2022-10-19T13:01:21.017Z,99524.03
2022-10-19T13:03:50.719Z,99532.94
2022-10-19T13:06:23.287Z,99518.75
2022-10-19T13:08:52.963Z,99519.47
2022-10-19T13:11:20.294Z,99510.34
2022-10-19T13:14:00.250Z,99501.34
2022-10-19T13:16:29.882Z,99505.81
2022-10-19T13:18:59.396Z,99497.97
2022-10-19T13:21:47.746Z,99494.91
2022-10-19T13:24:30.176Z,99499.56
2022-10-19T13:27:02.758Z,99490.72
2022-10-19T13:29:41.380Z,99501.41
2022-10-19T13:32:36.585Z,99495.94
2022-10-19T13:35:26.653Z,99490.03
2022-10-19T13:38:15.017Z,99487.66
2022-10-19T13:40:55.911Z,99485.47
2022-10-19T13:43:29.039Z,99481.53
2022-10-19T13:46:07.628Z,99479.63
2022-10-19T13:48:46.715Z,99468.63
2022-10-19T13:51:40.805Z,99476.53
2022-10-19T13:54:32.193Z,99469.06
2022-10-19T13:57:23.280Z,99469.63
2022-10-19T14:00:27.209Z,99464.59
2022-10-19T14:03:01.349Z,99467.47
2022-10-19T14:08:21.568Z,99464.97
2022-10-19T14:11:01.070Z,99471.50
2022-10-19T14:13:29.257Z,99467.59
2022-10-19T14:15:58.821Z,99467.25
2022-10-19T14:18:35.767Z,99459.25
2022-10-19T14:21:09.948Z,99456.25
2022-10-19T14:23:41.159Z,99454.59
2022-10-19T14:26:17.193Z,99447.06
2022-10-19T14:28:43.872Z,99450.53
2022-10-19T14:31:18.195Z,99439.59
2022-10-19T14:33:52.063Z,99443.28
2022-10-19T14:36:20.990Z,99432.78
2022-10-19T14:38:50.380Z,99424.81
2022-10-19T14:41:39.449Z,99421.53
2022-10-19T14:44:46.182Z,99424.41
2022-10-19T14:47:24.210Z,99429.16
2022-10-19T14:49:51.151Z,99429.94
2022-10-19T14:54:55.640Z,99427.19
2022-10-19T14:57:31.174Z,99427.38
2022-10-19T15:00:03.915Z,99427.25
2022-10-19T15:02:37.468Z,99424.75
2022-10-19T15:05:06.619Z,99423.72
2022-10-19T15:07:42.023Z,99422.31
2022-10-19T15:10:16.219Z,99427.28
2022-10-19T15:12:43.906Z,99428.31
2022-10-19T15:15:16.619Z,99426.53
2022-10-19T15:18:30.189Z,99417.09
2022-10-19T15:21:12.097Z,99424.19
2022-10-19T15:23:48.054Z,99425.88
2022-10-19T15:26:26.840Z,99420.53
2022-10-19T15:29:20.734Z,99412.00
2022-10-19T15:31:48.054Z,99405.88
2022-10-19T15:34:25.431Z,99402.31
2022-10-19T15:37:00.359Z,99397.84
2022-10-19T15:39:42.094Z,99404.16
2022-10-19T15:42:36.523Z,99399.50
2022-10-19T15:45:24.668Z,99401.03
2022-10-19T15:48:25.889Z,99395.41
2022-10-19T15:50:53.297Z,99393.94
2022-10-19T15:53:20.796Z,99397.28
2022-10-19T15:55:47.664Z,99398.00
2022-10-19T15:58:14.510Z,99395.22
2022-10-19T16:00:41.928Z,99403.28
2022-10-19T16:03:09.236Z,99398.19
2022-10-19T16:05:39.004Z,99404.41
2022-10-19T16:08:11.701Z,99395.31
2022-10-19T16:10:39.871Z,99397.63
2022-10-19T16:13:06.617Z,99400.75
2022-10-19T16:15:33.514Z,99395.63
2022-10-19T16:18:00.960Z,99394.03
2022-10-19T16:20:29.575Z,99397.13
2022-10-19T16:22:56.966Z,99395.69
2022-10-19T16:25:23.614Z,99388.97
2022-10-19T16:27:50.248Z,99400.44
2022-10-19T16:30:19.985Z,99389.03
2022-10-19T16:32:49.836Z,99387.81
2022-10-19T16:35:16.768Z,99388.38
2022-10-19T16:37:43.449Z,99388.53
2022-10-19T16:40:10.924Z,99401.34
2022-10-19T16:42:37.917Z,99401.81
2022-10-19T16:45:04.976Z,99404.09
2022-10-19T16:47:31.503Z,99406.31
2022-10-19T16:50:02.922Z,99401.84
2022-10-19T16:52:31.779Z,99405.81
2022-10-19T16:54:59.762Z,99407.09
2022-10-19T16:57:26.441Z,99409.75
2022-10-19T17:02:23.951Z,99405.53
2022-10-19T17:04:50.866Z,99406.34
2022-10-19T17:07:18.201Z,99410.00
2022-10-19T17:09:45.075Z,99407.38
2022-10-19T17:12:12.270Z,99406.84
2022-10-19T17:14:43.282Z,99413.22
2022-10-19T17:17:11.332Z,99415.38
2022-10-19T17:19:38.258Z,99412.97
2022-10-19T17:22:05.676Z,99414.34
2022-10-19T17:24:32.417Z,99419.72
2022-10-19T17:27:02.177Z,99414.81
2022-10-19T17:29:29.044Z,99415.31
2022-10-19T17:31:55.829Z,99419.66
2022-10-19T17:34:22.921Z,99417.47
2022-10-19T17:36:49.966Z,99421.09
2022-10-19T17:39:24.341Z,99416.59
2022-10-19T17:41:54.501Z,99413.41
2022-10-19T17:44:22.321Z,99423.09
2022-10-19T17:46:49.038Z,99421.69
2022-10-19T17:49:17.507Z,99418.50
2022-10-19T17:51:44.027Z,99423.97
2022-10-19T17:54:13.093Z,99419.31
2022-10-19T17:56:40.781Z,99417.91
2022-10-19T17:59:09.029Z,99417.22
2022-10-19T18:01:37.463Z,99419.25
2022-10-19T18:04:05.506Z,99422.50
2022-10-19T18:06:35.055Z,99420.34
2022-10-19T18:09:04.057Z,99418.41
2022-10-19T18:11:45.035Z,99425.78
2022-10-19T18:14:13.957Z,99423.59
2022-10-19T18:16:47.277Z,99416.41
2022-10-19T18:19:16.681Z,99415.91
2022-10-19T18:21:45.541Z,99413.34
2022-10-19T18:24:20.445Z,99413.59
2022-10-19T18:26:49.090Z,99407.75
2022-10-19T18:29:19.167Z,99414.16
2022-10-19T18:31:51.408Z,99412.34
2022-10-19T18:34:21.397Z,99421.38
2022-10-19T18:36:48.434Z,99414.63
2022-10-19T18:39:15.289Z,99412.66
2022-10-19T18:41:41.942Z,99417.41
2022-10-19T18:44:11.385Z,99415.28
2022-10-19T18:46:38.588Z,99418.25
2022-10-19T18:49:08.165Z,99417.25
2022-10-19T18:51:35.590Z,99421.03
2022-10-19T18:54:08.669Z,99422.34
2022-10-19T18:56:36.627Z,99422.19
2022-10-19T18:59:05.162Z,99423.03
2022-10-19T19:01:31.903Z,99415.59
2022-10-19T19:04:06.536Z,99420.56
2022-10-19T19:06:35.738Z,99410.88
2022-10-19T19:09:06.204Z,99393.66
2022-10-19T19:11:36.897Z,99405.94
2022-10-19T19:14:12.274Z,99402.66
2022-10-19T19:16:41.197Z,99410.75
2022-10-19T19:22:00.314Z,99407.81
2022-10-19T19:24:32.823Z,99400.66
2022-10-19T19:26:59.849Z,99409.09
2022-10-19T19:29:39.907Z,99407.84
2022-10-19T19:32:09.760Z,99405.25
2022-10-19T19:37:33.170Z,99404.97
2022-10-19T19:45:22.730Z,99405.50
2022-10-19T19:47:52.533Z,99403.69
2022-10-19T19:53:32.424Z,99400.72
2022-10-19T19:55:59.463Z,99411.56
2022-10-19T19:58:28.560Z,99407.19
2022-10-19T20:00:55.717Z,99403.16
2022-10-19T20:03:22.349Z,99398.16
2022-10-19T20:05:49.086Z,99395.13
2022-10-19T20:08:15.728Z,99398.78
2022-10-19T20:10:43.320Z,99396.81
2022-10-19T20:13:10.583Z,99405.84
2022-10-19T20:15:38.819Z,99403.84
2022-10-19T20:18:06.886Z,99404.47
2022-10-19T20:20:33.602Z,99394.22
2022-10-19T20:23:00.242Z,99394.41
2022-10-19T20:25:27.405Z,99396.66
2022-10-19T20:27:54.071Z,99392.88
2022-10-19T20:30:22.038Z,99386.19
2022-10-19T20:32:49.485Z,99389.41
2022-10-19T20:35:16.347Z,99386.44
2022-10-19T20:37:42.978Z,99388.00
2022-10-19T20:40:10.324Z,99390.06
2022-10-19T20:42:37.889Z,99383.28
2022-10-19T20:45:05.115Z,99386.28
2022-10-19T20:47:31.592Z,99389.06
2022-10-19T20:49:58.160Z,99385.03
2022-10-19T20:52:24.763Z,99380.16
2022-10-19T20:54:51.316Z,99389.88
2022-10-19T20:57:17.930Z,99388.69
2022-10-19T20:59:45.769Z,99388.88
2022-10-19T21:02:12.378Z,99382.66
2022-10-19T21:04:39.063Z,99382.06
2022-10-19T21:07:05.704Z,99384.31
2022-10-19T21:09:32.389Z,99378.56
2022-10-19T21:11:59.659Z,99375.00
2022-10-19T21:14:28.810Z,99372.81
2022-10-19T21:16:59.537Z,99377.44
2022-10-19T21:19:28.710Z,99372.00
2022-10-19T21:22:03.637Z,99363.78
2022-10-19T21:24:32.810Z,99369.63
2022-10-19T21:27:05.672Z,99365.19
2022-10-19T21:29:32.850Z,99366.00
2022-10-19T21:32:04.858Z,99360.38
2022-10-19T21:34:32.394Z,99366.03
2022-10-19T21:37:00.173Z,99359.38
2022-10-19T21:39:26.900Z,99358.81
2022-10-19T21:41:53.551Z,99356.19
2022-10-19T21:44:22.954Z,99364.00
2022-10-19T21:46:49.741Z,99373.63
2022-10-19T21:49:17.390Z,99374.25
2022-10-19T21:51:53.588Z,99360.16
2022-10-19T21:54:24.957Z,99369.97
2022-10-19T21:56:52.039Z,99368.22
2022-10-19T21:59:18.709Z,99356.59
2022-10-19T22:01:45.325Z,99357.22
2022-10-19T22:04:17.184Z,99351.19
2022-10-19T22:06:43.861Z,99356.81
2022-10-19T22:09:14.459Z,99361.03
2022-10-19T22:11:41.105Z,99359.22
2022-10-19T22:14:08.034Z,99355.38
2022-10-19T22:16:36.988Z,99356.78
2022-10-19T22:19:05.505Z,99360.59
2022-10-19T22:21:33.505Z,99353.97
2022-10-19T22:24:12.728Z,99339.72
2022-10-19T22:26:50.673Z,99333.94
2022-10-19T22:29:17.501Z,99339.97
2022-10-19T22:31:44.423Z,99336.97
2022-10-19T22:34:14.815Z,99337.34
2022-10-19T22:36:41.696Z,99335.16
2022-10-19T22:39:08.316Z,99331.56
2022-10-19T22:41:34.773Z,99327.31
2022-10-19T22:44:01.347Z,99321.31
2022-10-19T22:46:27.934Z,99326.53
2022-10-19T22:48:54.405Z,99320.13
2022-10-19T22:51:21.011Z,99314.94
2022-10-19T22:53:47.549Z,99318.16
2022-10-19T22:56:14.148Z,99319.75
2022-10-19T22:58:40.900Z,99315.75
2022-10-19T23:01:10.524Z,99324.78
2022-10-19T23:03:40.524Z,99318.75
2022-10-19T23:06:12.898Z,99318.38
2022-10-19T23:08:39.748Z,99309.31
2022-10-19T23:11:06.289Z,99313.13
2022-10-19T23:13:33.216Z,99317.34
2022-10-19T23:15:59.724Z,99315.75
2022-10-19T23:18:26.483Z,99314.34
2022-10-19T23:20:56.534Z,99315.75
2022-10-19T23:23:23.421Z,99312.75
2022-10-19T23:26:05.381Z,99323.97
2022-10-19T23:28:33.827Z,99318.56
2022-10-19T23:31:15.234Z,99329.59
2022-10-19T23:33:42.953Z,99335.22
2022-10-19T23:36:14.291Z,99330.41
2022-10-19T23:38:43.276Z,99328.19
2022-10-19T23:41:10.343Z,99330.59
2022-10-19T23:46:03.334Z,99335.81
2022-10-19T23:48:29.985Z,99330.00
2022-10-19T23:51:05.026Z,99318.56
2022-10-19T23:53:35.725Z,99322.00
2022-10-19T23:56:10.061Z,99317.38
2022-10-19T23:58:36.652Z,99319.78
